sensor_id;sensor_type;location;lat;lon;timestamp;temperature;humidity
40816;DHT22;26535;48.788;9.214;2023-09-30T00:02:12;18.00;95.60
40816;DHT22;26535;48.788;9.214;2023-09-30T00:04:38;17.90;95.60
40816;DHT22;26535;48.788;9.214;2023-09-30T00:07:04;17.90;95.80
40816;DHT22;26535;48.788;9.214;2023-09-30T00:09:31;18.00;95.70
40816;DHT22;26535;48.788;9.214;2023-09-30T00:11:57;18.00;95.80
40816;DHT22;26535;48.788;9.214;2023-09-30T00:14:22;17.80;95.90
40816;DHT22;26535;48.788;9.214;2023-09-30T00:16:48;17.70;96.10
40816;DHT22;26535;48.788;9.214;2023-09-30T00:19:14;17.60;96.30
40816;DHT22;26535;48.788;9.214;2023-09-30T00:21:40;17.50;96.60
40816;DHT22;26535;48.788;9.214;2023-09-30T00:24:05;17.40;96.80
40816;DHT22;26535;48.788;9.214;2023-09-30T00:26:31;17.40;97.10
40816;DHT22;26535;48.788;9.214;2023-09-30T00:28:57;17.30;97.40
40816;DHT22;26535;48.788;9.214;2023-09-30T06:55:34;17.20;99.90
40816;DHT22;26535;48.788;9.214;2023-09-30T06:58:00;17.30;99.90
40816;DHT22;26535;48.788;9.214;2023-09-30T07:00:26;17.30;99.90
40816;DHT22;26535;48.788;9.214;2023-09-30T07:02:52;17.20;99.90
40816;DHT22;26535;48.788;9.214;2023-09-30T07:05:19;17.30;99.90
40816;DHT22;26535;48.788;9.214;2023-09-30T07:07:44;17.30;99.90
40816;DHT22;26535;48.788;9.214;2023-09-30T07:10:11;17.20;99.90
40816;DHT22;26535;48.788;9.214;2023-09-30T07:12:37;17.40;99.90
40816;DHT22;26535;48.788;9.214;2023-09-30T07:15:06;17.60;99.90
40816;DHT22;26535;48.788;9.214;2023-09-30T07:17:32;17.70;99.90
40816;DHT22;26535;48.788;9.214;2023-09-30T07:19:59;17.70;99.90
40816;DHT22;26535;48.788;9.214;2023-09-30T07:22:25;17.80;99.90
40816;DHT22;26535;48.788;9.214;2023-09-30T07:24:50;17.80;99.90
40816;DHT22;26535;48.788;9.214;2023-09-30T07:27:16;17.80;99.90
40816;DHT22;26535;48.788;9.214;2023-09-30T07:29:43;17.90;99.90
40816;DHT22;26535;48.788;9.214;2023-09-30T07:32:09;17.90;99.90
40816;DHT22;26535;48.788;9.214;2023-09-30T07:34:35;17.80;99.90
40816;DHT22;26535;48.788;9.214;2023-09-30T07:37:00;17.70;99.90
40816;DHT22;26535;48.788;9.214;2023-09-30T07:39:26;17.60;99.90
40816;DHT22;26535;48.788;9.214;2023-09-30T07:41:52;17.50;99.90
40816;DHT22;26535;48.788;9.214;2023-09-30T07:44:17;17.50;99.90
40816;DHT22;26535;48.788;9.214;2023-09-30T07:46:43;17.40;99.90
40816;DHT22;26535;48.788;9.214;2023-09-30T07:49:10;17.50;99.90
40816;DHT22;26535;48.788;9.214;2023-09-30T07:51:36;17.50;99.90
40816;DHT22;26535;48.788;9.214;2023-09-30T07:54:03;17.60;99.90
40816;DHT22;26535;48.788;9.214;2023-09-30T07:56:29;17.50;99.90
40816;DHT22;26535;48.788;9.214;2023-09-30T07:58:55;17.50;99.90
40816;DHT22;26535;48.788;9.214;2023-09-30T08:01:21;17.60;99.90
40816;DHT22;26535;48.788;9.214;2023-09-30T08:03:47;17.70;99.90
40816;DHT22;26535;48.788;9.214;2023-09-30T08:06:12;17.70;99.90
40816;DHT22;26535;48.788;9.214;2023-09-30T08:08:38;17.80;99.90
40816;DHT22;26535;48.788;9.214;2023-09-30T08:11:05;17.90;99.90
40816;DHT22;26535;48.788;9.214;2023-09-30T08:13:32;18.00;99.90
40816;DHT22;26535;48.788;9.214;2023-09-30T08:15:59;18.10;99.90
40816;DHT22;26535;48.788;9.214;2023-09-30T08:18:24;18.20;99.80
40816;DHT22;26535;48.788;9.214;2023-09-30T08:20:50;18.30;99.80
40816;DHT22;26535;48.788;9.214;2023-09-30T08:23:16;18.50;99.60
40816;DHT22;26535;48.788;9.214;2023-09-30T08:25:42;18.50;98.90
40816;DHT22;26535;48.788;9.214;2023-09-30T08:28:07;18.60;98.70
40816;DHT22;26535;48.788;9.214;2023-09-30T08:30:35;18.80;98.40
40816;DHT22;26535;48.788;9.214;2023-09-30T08:33:02;19.00;97.50
40816;DHT22;26535;48.788;9.214;2023-09-30T08:35:29;19.00;97.80
40816;DHT22;26535;48.788;9.214;2023-09-30T08:37:55;19.10;97.40
40816;DHT22;26535;48.788;9.214;2023-09-30T08:40:21;19.20;97.10
40816;DHT22;26535;48.788;9.214;2023-09-30T08:42:51;19.10;96.60
40816;DHT22;26535;48.788;9.214;2023-09-30T08:45:17;19.10;96.90
40816;DHT22;26535;48.788;9.214;2023-09-30T08:47:44;19.20;97.20
40816;DHT22;26535;48.788;9.214;2023-09-30T08:50:10;19.30;97.50
40816;DHT22;26535;48.788;9.214;2023-09-30T08:52:40;19.40;97.10
40816;DHT22;26535;48.788;9.214;2023-09-30T08:55:09;19.50;96.60
40816;DHT22;26535;48.788;9.214;2023-09-30T08:57:42;19.60;96.20
40816;DHT22;26535;48.788;9.214;2023-09-30T09:00:12;19.70;95.60
40816;DHT22;26535;48.788;9.214;2023-09-30T09:02:39;19.70;95.60
40816;DHT22;26535;48.788;9.214;2023-09-30T09:05:05;19.70;95.50
40816;DHT22;26535;48.788;9.214;2023-09-30T09:07:32;19.70;95.00
40816;DHT22;26535;48.788;9.214;2023-09-30T09:10:09;19.70;95.20
40816;DHT22;26535;48.788;9.214;2023-09-30T09:12:36;19.90;94.70
40816;DHT22;26535;48.788;9.214;2023-09-30T09:15:05;19.90;94.30
40816;DHT22;26535;48.788;9.214;2023-09-30T09:17:42;20.00;94.10
40816;DHT22;26535;48.788;9.214;2023-09-30T09:20:16;20.00;93.90
40816;DHT22;26535;48.788;9.214;2023-09-30T09:22:47;19.90;93.60
40816;DHT22;26535;48.788;9.214;2023-09-30T09:25:13;20.00;93.50
40816;DHT22;26535;48.788;9.214;2023-09-30T09:27:39;20.10;93.60
40816;DHT22;26535;48.788;9.214;2023-09-30T09:30:22;20.20;93.00
40816;DHT22;26535;48.788;9.214;2023-09-30T09:33:04;20.20;92.90
40816;DHT22;26535;48.788;9.214;2023-09-30T09:35:34;20.30;92.70
40816;DHT22;26535;48.788;9.214;2023-09-30T09:38:07;20.50;92.60
40816;DHT22;26535;48.788;9.214;2023-09-30T09:40:35;20.70;92.40
40816;DHT22;26535;48.788;9.214;2023-09-30T09:43:02;20.80;91.70
40816;DHT22;26535;48.788;9.214;2023-09-30T09:45:35;21.00;91.50
40816;DHT22;26535;48.788;9.214;2023-09-30T09:48:03;20.80;90.80
40816;DHT22;26535;48.788;9.214;2023-09-30T09:50:30;20.80;91.50
40816;DHT22;26535;48.788;9.214;2023-09-30T09:52:59;21.00;90.60
40816;DHT22;26535;48.788;9.214;2023-09-30T09:55:26;21.20;90.80
40816;DHT22;26535;48.788;9.214;2023-09-30T09:57:53;21.30;90.20
40816;DHT22;26535;48.788;9.214;2023-09-30T10:00:25;21.40;89.30
40816;DHT22;26535;48.788;9.214;2023-09-30T10:02:51;21.80;89.20
40816;DHT22;26535;48.788;9.214;2023-09-30T10:05:20;22.00;87.70
40816;DHT22;26535;48.788;9.214;2023-09-30T10:07:56;22.10;86.30
40816;DHT22;26535;48.788;9.214;2023-09-30T10:10:24;22.40;86.40
40816;DHT22;26535;48.788;9.214;2023-09-30T10:12:50;22.70;84.50
40816;DHT22;26535;48.788;9.214;2023-09-30T10:18:04;23.10;82.20
40816;DHT22;26535;48.788;9.214;2023-09-30T10:20:31;23.10;82.40
40816;DHT22;26535;48.788;9.214;2023-09-30T10:23:28;23.50;81.90
40816;DHT22;26535;48.788;9.214;2023-09-30T10:31:16;24.00;78.60
40816;DHT22;26535;48.788;9.214;2023-09-30T10:39:00;23.50;78.60
40816;DHT22;26535;48.788;9.214;2023-09-30T10:47:00;23.10;80.30
40816;DHT22;26535;48.788;9.214;2023-09-30T10:49:46;23.00;79.80
40816;DHT22;26535;48.788;9.214;2023-09-30T10:52:22;22.80;80.10
40816;DHT22;26535;48.788;9.214;2023-09-30T10:54:49;22.60;82.00
40816;DHT22;26535;48.788;9.214;2023-09-30T10:57:26;22.60;80.70
40816;DHT22;26535;48.788;9.214;2023-09-30T11:00:12;22.50;81.90
40816;DHT22;26535;48.788;9.214;2023-09-30T11:02:50;22.60;81.50
40816;DHT22;26535;48.788;9.214;2023-09-30T11:05:17;23.00;81.00
40816;DHT22;26535;48.788;9.214;2023-09-30T11:07:45;23.30;80.10
40816;DHT22;26535;48.788;9.214;2023-09-30T11:10:16;23.30;79.80
40816;DHT22;26535;48.788;9.214;2023-09-30T11:12:54;23.10;80.00
40816;DHT22;26535;48.788;9.214;2023-09-30T11:15:20;22.90;80.00
40816;DHT22;26535;48.788;9.214;2023-09-30T11:17:45;22.80;80.60
40816;DHT22;26535;48.788;9.214;2023-09-30T11:20:11;23.70;79.20
40816;DHT22;26535;48.788;9.214;2023-09-30T11:22:37;24.30;76.90
40816;DHT22;26535;48.788;9.214;2023-09-30T11:25:05;25.60;74.10
40816;DHT22;26535;48.788;9.214;2023-09-30T11:27:30;26.60;70.10
40816;DHT22;26535;48.788;9.214;2023-09-30T11:29:57;27.70;66.80
40816;DHT22;26535;48.788;9.214;2023-09-30T11:32:28;28.50;66.20
40816;DHT22;26535;48.788;9.214;2023-09-30T11:34:54;29.40;64.10
40816;DHT22;26535;48.788;9.214;2023-09-30T11:37:20;30.10;62.70
40816;DHT22;26535;48.788;9.214;2023-09-30T11:39:49;30.60;61.70
40816;DHT22;26535;48.788;9.214;2023-09-30T11:42:16;31.00;60.10
40816;DHT22;26535;48.788;9.214;2023-09-30T11:44:46;31.20;59.20
40816;DHT22;26535;48.788;9.214;2023-09-30T11:47:14;30.70;59.40
40816;DHT22;26535;48.788;9.214;2023-09-30T11:49:41;30.90;58.80
40816;DHT22;26535;48.788;9.214;2023-09-30T11:52:13;31.60;58.30
40816;DHT22;26535;48.788;9.214;2023-09-30T11:54:42;32.20;56.10
40816;DHT22;26535;48.788;9.214;2023-09-30T11:57:14;31.00;57.10
40816;DHT22;26535;48.788;9.214;2023-09-30T11:59:44;30.20;58.60
40816;DHT22;26535;48.788;9.214;2023-09-30T12:02:10;29.60;58.90
40816;DHT22;26535;48.788;9.214;2023-09-30T12:04:37;28.90;58.90
40816;DHT22;26535;48.788;9.214;2023-09-30T12:07:03;28.10;59.70
40816;DHT22;26535;48.788;9.214;2023-09-30T12:09:29;27.10;60.80
40816;DHT22;26535;48.788;9.214;2023-09-30T12:11:56;26.60;62.40
40816;DHT22;26535;48.788;9.214;2023-09-30T12:14:25;26.00;63.10
40816;DHT22;26535;48.788;9.214;2023-09-30T12:16:51;25.80;64.10
40816;DHT22;26535;48.788;9.214;2023-09-30T12:19:17;25.70;64.90
40816;DHT22;26535;48.788;9.214;2023-09-30T12:21:44;25.90;65.50
40816;DHT22;26535;48.788;9.214;2023-09-30T12:24:12;25.90;65.30
40816;DHT22;26535;48.788;9.214;2023-09-30T12:26:45;25.90;66.10
40816;DHT22;26535;48.788;9.214;2023-09-30T12:29:21;26.00;66.40
40816;DHT22;26535;48.788;9.214;2023-09-30T12:31:51;26.30;65.70
40816;DHT22;26535;48.788;9.214;2023-09-30T12:34:17;26.40;65.50
40816;DHT22;26535;48.788;9.214;2023-09-30T12:36:44;26.70;65.00
40816;DHT22;26535;48.788;9.214;2023-09-30T12:39:10;26.70;64.90
40816;DHT22;26535;48.788;9.214;2023-09-30T12:41:42;27.10;64.00
40816;DHT22;26535;48.788;9.214;2023-09-30T12:44:09;27.10;64.30
40816;DHT22;26535;48.788;9.214;2023-09-30T12:46:36;28.20;62.00
40816;DHT22;26535;48.788;9.214;2023-09-30T12:49:06;28.70;60.40
40816;DHT22;26535;48.788;9.214;2023-09-30T12:51:33;30.00;58.70
40816;DHT22;26535;48.788;9.214;2023-09-30T12:53:59;30.90;57.20
40816;DHT22;26535;48.788;9.214;2023-09-30T12:56:25;31.50;56.20
40816;DHT22;26535;48.788;9.214;2023-09-30T12:58:51;32.20;54.80
40816;DHT22;26535;48.788;9.214;2023-09-30T13:01:17;32.90;54.50
40816;DHT22;26535;48.788;9.214;2023-09-30T13:03:46;33.70;52.50
40816;DHT22;26535;48.788;9.214;2023-09-30T13:06:12;33.50;52.20
40816;DHT22;26535;48.788;9.214;2023-09-30T13:08:38;33.90;51.30
40816;DHT22;26535;48.788;9.214;2023-09-30T13:11:04;34.10;51.60
40816;DHT22;26535;48.788;9.214;2023-09-30T13:13:31;33.40;52.20
40816;DHT22;26535;48.788;9.214;2023-09-30T13:16:03;31.90;52.90
40816;DHT22;26535;48.788;9.214;2023-09-30T13:18:31;30.70;54.00
40816;DHT22;26535;48.788;9.214;2023-09-30T13:20:58;29.30;56.00
40816;DHT22;26535;48.788;9.214;2023-09-30T13:23:23;28.70;57.00
40816;DHT22;26535;48.788;9.214;2023-09-30T13:25:49;28.20;57.60
40816;DHT22;26535;48.788;9.214;2023-09-30T13:28:15;28.30;57.30
40816;DHT22;26535;48.788;9.214;2023-09-30T13:30:41;29.40;56.60
40816;DHT22;26535;48.788;9.214;2023-09-30T13:33:07;30.40;56.40
40816;DHT22;26535;48.788;9.214;2023-09-30T13:35:33;31.30;55.70
40816;DHT22;26535;48.788;9.214;2023-09-30T13:38:01;32.00;54.90
40816;DHT22;26535;48.788;9.214;2023-09-30T13:40:27;33.10;53.70
40816;DHT22;26535;48.788;9.214;2023-09-30T13:42:53;34.10;51.90
40816;DHT22;26535;48.788;9.214;2023-09-30T13:45:18;34.30;51.40
40816;DHT22;26535;48.788;9.214;2023-09-30T13:47:44;33.30;52.10
40816;DHT22;26535;48.788;9.214;2023-09-30T13:50:10;32.20;53.50
40816;DHT22;26535;48.788;9.214;2023-09-30T13:52:36;32.00;53.80
40816;DHT22;26535;48.788;9.214;2023-09-30T13:55:02;32.50;53.60
40816;DHT22;26535;48.788;9.214;2023-09-30T13:57:28;32.10;53.40
40816;DHT22;26535;48.788;9.214;2023-09-30T13:59:56;31.10;54.90
40816;DHT22;26535;48.788;9.214;2023-09-30T14:02:22;29.70;56.70
40816;DHT22;26535;48.788;9.214;2023-09-30T14:04:49;28.40;58.30
40816;DHT22;26535;48.788;9.214;2023-09-30T14:07:15;27.90;60.50
40816;DHT22;26535;48.788;9.214;2023-09-30T14:09:44;27.40;60.90
40816;DHT22;26535;48.788;9.214;2023-09-30T14:12:09;27.10;61.20
40816;DHT22;26535;48.788;9.214;2023-09-30T14:14:35;26.40;62.20
40816;DHT22;26535;48.788;9.214;2023-09-30T14:17:01;26.50;62.00
40816;DHT22;26535;48.788;9.214;2023-09-30T14:19:34;26.80;61.60
40816;DHT22;26535;48.788;9.214;2023-09-30T14:22:00;27.00;62.10
40816;DHT22;26535;48.788;9.214;2023-09-30T14:24:26;27.80;60.70
40816;DHT22;26535;48.788;9.214;2023-09-30T14:26:52;28.30;58.70
40816;DHT22;26535;48.788;9.214;2023-09-30T14:29:17;29.20;57.80
40816;DHT22;26535;48.788;9.214;2023-09-30T14:31:43;30.00;57.20
40816;DHT22;26535;48.788;9.214;2023-09-30T14:34:09;30.40;56.40
40816;DHT22;26535;48.788;9.214;2023-09-30T14:36:35;30.30;56.60
40816;DHT22;26535;48.788;9.214;2023-09-30T14:39:00;29.90;56.50
40816;DHT22;26535;48.788;9.214;2023-09-30T14:41:26;29.80;57.00
40816;DHT22;26535;48.788;9.214;2023-09-30T14:43:52;29.70;56.60
40816;DHT22;26535;48.788;9.214;2023-09-30T14:46:17;29.50;57.20
40816;DHT22;26535;48.788;9.214;2023-09-30T14:48:43;29.30;57.30
40816;DHT22;26535;48.788;9.214;2023-09-30T14:51:09;29.00;57.90
40816;DHT22;26535;48.788;9.214;2023-09-30T14:53:35;28.80;58.10
40816;DHT22;26535;48.788;9.214;2023-09-30T14:56:13;28.50;58.60
40816;DHT22;26535;48.788;9.214;2023-09-30T14:58:39;28.50;58.40
40816;DHT22;26535;48.788;9.214;2023-09-30T15:01:08;28.40;58.40
40816;DHT22;26535;48.788;9.214;2023-09-30T15:03:34;28.60;58.20
40816;DHT22;26535;48.788;9.214;2023-09-30T15:06:03;29.10;57.30
40816;DHT22;26535;48.788;9.214;2023-09-30T15:08:33;29.30;56.90
40816;DHT22;26535;48.788;9.214;2023-09-30T15:10:59;29.60;56.70
40816;DHT22;26535;48.788;9.214;2023-09-30T15:13:25;29.50;56.60
40816;DHT22;26535;48.788;9.214;2023-09-30T15:15:51;29.10;56.80
40816;DHT22;26535;48.788;9.214;2023-09-30T15:18:17;28.90;57.10
40816;DHT22;26535;48.788;9.214;2023-09-30T15:20:43;28.30;58.20
40816;DHT22;26535;48.788;9.214;2023-09-30T15:23:13;27.70;58.60
40816;DHT22;26535;48.788;9.214;2023-09-30T15:25:45;27.10;59.70
40816;DHT22;26535;48.788;9.214;2023-09-30T15:28:11;26.50;60.60
40816;DHT22;26535;48.788;9.214;2023-09-30T15:30:38;25.90;62.30
40816;DHT22;26535;48.788;9.214;2023-09-30T15:33:04;25.90;62.60
40816;DHT22;26535;48.788;9.214;2023-09-30T15:35:29;25.80;62.50
40816;DHT22;26535;48.788;9.214;2023-09-30T15:37:56;25.50;63.50
40816;DHT22;26535;48.788;9.214;2023-09-30T15:40:25;25.20;63.80
40816;DHT22;26535;48.788;9.214;2023-09-30T15:42:52;25.10;63.50
40816;DHT22;26535;48.788;9.214;2023-09-30T15:45:18;25.00;64.00
40816;DHT22;26535;48.788;9.214;2023-09-30T15:47:44;24.90;64.30
40816;DHT22;26535;48.788;9.214;2023-09-30T15:50:10;24.90;64.40
40816;DHT22;26535;48.788;9.214;2023-09-30T15:52:37;24.80;65.00
40816;DHT22;26535;48.788;9.214;2023-09-30T15:55:03;24.80;65.00
40816;DHT22;26535;48.788;9.214;2023-09-30T15:57:29;25.10;63.90
40816;DHT22;26535;48.788;9.214;2023-09-30T15:59:54;25.70;63.20
40816;DHT22;26535;48.788;9.214;2023-09-30T16:02:20;26.10;62.50
40816;DHT22;26535;48.788;9.214;2023-09-30T16:04:46;26.40;62.30
40816;DHT22;26535;48.788;9.214;2023-09-30T16:07:12;26.60;61.30
40816;DHT22;26535;48.788;9.214;2023-09-30T16:09:37;26.80;61.40
40816;DHT22;26535;48.788;9.214;2023-09-30T16:12:04;27.00;61.20
40816;DHT22;26535;48.788;9.214;2023-09-30T16:14:30;26.80;60.50
40816;DHT22;26535;48.788;9.214;2023-09-30T16:16:56;26.60;60.90
40816;DHT22;26535;48.788;9.214;2023-09-30T16:19:22;26.40;61.40
40816;DHT22;26535;48.788;9.214;2023-09-30T16:21:48;26.00;62.00
40816;DHT22;26535;48.788;9.214;2023-09-30T16:24:14;25.40;62.80
40816;DHT22;26535;48.788;9.214;2023-09-30T16:26:40;25.00;64.10
40816;DHT22;26535;48.788;9.214;2023-09-30T16:29:06;24.60;64.80
40816;DHT22;26535;48.788;9.214;2023-09-30T16:31:32;24.20;65.90
40816;DHT22;26535;48.788;9.214;2023-09-30T16:33:59;23.90;66.40
40816;DHT22;26535;48.788;9.214;2023-09-30T16:36:25;23.60;67.30
40816;DHT22;26535;48.788;9.214;2023-09-30T16:38:51;23.20;67.90
40816;DHT22;26535;48.788;9.214;2023-09-30T16:41:16;22.90;68.70
40816;DHT22;26535;48.788;9.214;2023-09-30T16:43:43;22.70;69.00
40816;DHT22;26535;48.788;9.214;2023-09-30T16:46:08;22.50;69.80
40816;DHT22;26535;48.788;9.214;2023-09-30T16:48:34;22.20;70.80
40816;DHT22;26535;48.788;9.214;2023-09-30T16:51:00;22.00;71.20
40816;DHT22;26535;48.788;9.214;2023-09-30T16:53:26;21.70;71.90
40816;DHT22;26535;48.788;9.214;2023-09-30T16:55:55;21.50;72.30
40816;DHT22;26535;48.788;9.214;2023-09-30T16:58:20;21.30;73.00
40816;DHT22;26535;48.788;9.214;2023-09-30T17:00:49;21.10;73.80
40816;DHT22;26535;48.788;9.214;2023-09-30T17:03:14;20.90;74.00
40816;DHT22;26535;48.788;9.214;2023-09-30T17:05:40;20.80;74.50
40816;DHT22;26535;48.788;9.214;2023-09-30T17:08:11;20.60;74.90
40816;DHT22;26535;48.788;9.214;2023-09-30T17:10:37;20.50;75.60
40816;DHT22;26535;48.788;9.214;2023-09-30T17:13:03;20.40;76.20
40816;DHT22;26535;48.788;9.214;2023-09-30T17:15:28;20.40;76.50
40816;DHT22;26535;48.788;9.214;2023-09-30T17:17:55;20.40;76.50
40816;DHT22;26535;48.788;9.214;2023-09-30T17:20:22;20.20;76.80
40816;DHT22;26535;48.788;9.214;2023-09-30T17:22:48;20.20;77.40
40816;DHT22;26535;48.788;9.214;2023-09-30T17:25:14;20.00;77.60
40816;DHT22;26535;48.788;9.214;2023-09-30T17:27:40;19.90;78.00
40816;DHT22;26535;48.788;9.214;2023-09-30T17:30:08;19.90;78.20
40816;DHT22;26535;48.788;9.214;2023-09-30T17:32:34;19.70;78.70
40816;DHT22;26535;48.788;9.214;2023-09-30T17:34:59;19.70;79.10
40816;DHT22;26535;48.788;9.214;2023-09-30T17:37:25;19.50;80.00
40816;DHT22;26535;48.788;9.214;2023-09-30T17:39:51;19.50;79.80
40816;DHT22;26535;48.788;9.214;2023-09-30T17:42:17;19.40;80.40
40816;DHT22;26535;48.788;9.214;2023-09-30T17:44:45;19.30;80.50
40816;DHT22;26535;48.788;9.214;2023-09-30T17:47:10;19.20;80.70
40816;DHT22;26535;48.788;9.214;2023-09-30T17:49:38;19.20;80.90
40816;DHT22;26535;48.788;9.214;2023-09-30T17:52:03;19.10;81.30
40816;DHT22;26535;48.788;9.214;2023-09-30T17:54:29;19.00;81.60
40816;DHT22;26535;48.788;9.214;2023-09-30T17:56:55;19.00;82.00
40816;DHT22;26535;48.788;9.214;2023-09-30T17:59:20;18.90;82.20
40816;DHT22;26535;48.788;9.214;2023-09-30T18:01:46;18.80;82.50
40816;DHT22;26535;48.788;9.214;2023-09-30T18:04:12;18.80;82.80
40816;DHT22;26535;48.788;9.214;2023-09-30T18:06:38;18.70;83.00
40816;DHT22;26535;48.788;9.214;2023-09-30T18:09:04;18.70;83.40
40816;DHT22;26535;48.788;9.214;2023-09-30T18:11:34;18.60;83.80
40816;DHT22;26535;48.788;9.214;2023-09-30T18:13:59;18.60;84.20
40816;DHT22;26535;48.788;9.214;2023-09-30T18:16:25;18.40;84.60
40816;DHT22;26535;48.788;9.214;2023-09-30T18:18:51;18.30;85.10
40816;DHT22;26535;48.788;9.214;2023-09-30T18:21:16;18.20;85.50
40816;DHT22;26535;48.788;9.214;2023-09-30T18:23:42;18.20;85.40
40816;DHT22;26535;48.788;9.214;2023-09-30T18:26:08;18.10;85.60
40816;DHT22;26535;48.788;9.214;2023-09-30T18:28:34;18.10;86.20
40816;DHT22;26535;48.788;9.214;2023-09-30T18:31:00;18.00;86.50
40816;DHT22;26535;48.788;9.214;2023-09-30T18:33:26;17.90;87.10
40816;DHT22;26535;48.788;9.214;2023-09-30T18:35:52;17.80;86.50
40816;DHT22;26535;48.788;9.214;2023-09-30T18:38:19;17.80;86.80
40816;DHT22;26535;48.788;9.214;2023-09-30T18:40:45;17.80;86.90
40816;DHT22;26535;48.788;9.214;2023-09-30T18:43:11;17.70;87.10
40816;DHT22;26535;48.788;9.214;2023-09-30T18:45:43;17.70;87.80
40816;DHT22;26535;48.788;9.214;2023-09-30T18:48:09;17.70;87.90
40816;DHT22;26535;48.788;9.214;2023-09-30T18:50:42;17.60;88.90
40816;DHT22;26535;48.788;9.214;2023-09-30T18:53:09;17.50;89.20
40816;DHT22;26535;48.788;9.214;2023-09-30T18:55:39;17.40;89.50
40816;DHT22;26535;48.788;9.214;2023-09-30T18:58:06;17.30;90.00
40816;DHT22;26535;48.788;9.214;2023-09-30T19:00:33;17.20;89.40
40816;DHT22;26535;48.788;9.214;2023-09-30T19:02:59;17.20;90.00
40816;DHT22;26535;48.788;9.214;2023-09-30T19:05:25;17.20;90.40
40816;DHT22;26535;48.788;9.214;2023-09-30T19:07:51;17.00;90.30
40816;DHT22;26535;48.788;9.214;2023-09-30T19:10:17;16.90;90.60
40816;DHT22;26535;48.788;9.214;2023-09-30T19:12:43;16.90;90.50
40816;DHT22;26535;48.788;9.214;2023-09-30T19:15:09;16.80;90.90
40816;DHT22;26535;48.788;9.214;2023-09-30T19:17:35;16.80;91.00
40816;DHT22;26535;48.788;9.214;2023-09-30T19:20:02;16.70;91.20
40816;DHT22;26535;48.788;9.214;2023-09-30T19:22:29;16.60;91.40
40816;DHT22;26535;48.788;9.214;2023-09-30T19:24:54;16.50;91.50
40816;DHT22;26535;48.788;9.214;2023-09-30T19:27:20;16.50;91.40
40816;DHT22;26535;48.788;9.214;2023-09-30T19:29:47;16.50;91.50
40816;DHT22;26535;48.788;9.214;2023-09-30T19:32:12;16.50;91.60
40816;DHT22;26535;48.788;9.214;2023-09-30T19:34:38;16.40;91.80
40816;DHT22;26535;48.788;9.214;2023-09-30T19:37:04;16.40;91.70
40816;DHT22;26535;48.788;9.214;2023-09-30T19:39:31;16.40;91.80
40816;DHT22;26535;48.788;9.214;2023-09-30T19:41:57;16.30;91.80
40816;DHT22;26535;48.788;9.214;2023-09-30T19:44:24;16.30;91.80
40816;DHT22;26535;48.788;9.214;2023-09-30T19:46:49;16.30;91.90
40816;DHT22;26535;48.788;9.214;2023-09-30T19:49:15;16.20;92.10
40816;DHT22;26535;48.788;9.214;2023-09-30T19:51:41;16.10;92.30
40816;DHT22;26535;48.788;9.214;2023-09-30T19:54:07;16.00;92.50
40816;DHT22;26535;48.788;9.214;2023-09-30T19:56:38;16.00;92.50
40816;DHT22;26535;48.788;9.214;2023-09-30T19:59:04;15.90;92.60
40816;DHT22;26535;48.788;9.214;2023-09-30T20:01:30;15.90;92.70
40816;DHT22;26535;48.788;9.214;2023-09-30T20:03:56;15.90;92.70
40816;DHT22;26535;48.788;9.214;2023-09-30T20:06:24;15.80;92.90
40816;DHT22;26535;48.788;9.214;2023-09-30T20:08:51;15.70;93.10
40816;DHT22;26535;48.788;9.214;2023-09-30T20:11:22;15.70;93.40
40816;DHT22;26535;48.788;9.214;2023-09-30T20:13:50;15.70;93.10
40816;DHT22;26535;48.788;9.214;2023-09-30T20:16:16;15.70;93.30
40816;DHT22;26535;48.788;9.214;2023-09-30T20:18:41;15.60;93.60
40816;DHT22;26535;48.788;9.214;2023-09-30T20:21:07;15.50;93.60
40816;DHT22;26535;48.788;9.214;2023-09-30T20:23:34;15.50;93.90
40816;DHT22;26535;48.788;9.214;2023-09-30T20:26:00;15.40;94.00
40816;DHT22;26535;48.788;9.214;2023-09-30T20:28:29;15.30;94.30
40816;DHT22;26535;48.788;9.214;2023-09-30T20:30:54;15.30;94.00
40816;DHT22;26535;48.788;9.214;2023-09-30T20:33:20;15.20;94.50
40816;DHT22;26535;48.788;9.214;2023-09-30T20:35:47;15.20;94.50
40816;DHT22;26535;48.788;9.214;2023-09-30T20:38:15;15.20;94.50
40816;DHT22;26535;48.788;9.214;2023-09-30T20:40:40;15.10;94.70
40816;DHT22;26535;48.788;9.214;2023-09-30T20:43:08;15.10;95.10
40816;DHT22;26535;48.788;9.214;2023-09-30T20:45:34;15.00;94.50
40816;DHT22;26535;48.788;9.214;2023-09-30T20:48:00;15.10;95.40
40816;DHT22;26535;48.788;9.214;2023-09-30T20:50:28;15.00;95.60
40816;DHT22;26535;48.788;9.214;2023-09-30T20:52:54;15.00;95.80
40816;DHT22;26535;48.788;9.214;2023-09-30T20:55:19;14.90;96.10
40816;DHT22;26535;48.788;9.214;2023-09-30T20:57:45;14.90;96.20
40816;DHT22;26535;48.788;9.214;2023-09-30T21:00:11;14.80;96.40
40816;DHT22;26535;48.788;9.214;2023-09-30T21:02:39;14.80;96.70
40816;DHT22;26535;48.788;9.214;2023-09-30T21:05:07;14.70;96.70
40816;DHT22;26535;48.788;9.214;2023-09-30T21:07:33;14.70;97.00
40816;DHT22;26535;48.788;9.214;2023-09-30T21:09:58;14.70;97.00
40816;DHT22;26535;48.788;9.214;2023-09-30T21:12:24;14.50;97.10
40816;DHT22;26535;48.788;9.214;2023-09-30T21:14:51;14.60;97.50
40816;DHT22;26535;48.788;9.214;2023-09-30T21:17:17;14.50;97.60
40816;DHT22;26535;48.788;9.214;2023-09-30T21:19:43;14.50;97.70
40816;DHT22;26535;48.788;9.214;2023-09-30T21:22:09;14.50;97.20
40816;DHT22;26535;48.788;9.214;2023-09-30T21:24:35;14.40;97.30
40816;DHT22;26535;48.788;9.214;2023-09-30T21:27:02;14.50;97.30
40816;DHT22;26535;48.788;9.214;2023-09-30T21:29:28;14.50;97.80
40816;DHT22;26535;48.788;9.214;2023-09-30T21:31:55;14.40;97.50
40816;DHT22;26535;48.788;9.214;2023-09-30T21:34:21;14.40;97.70
40816;DHT22;26535;48.788;9.214;2023-09-30T21:36:47;14.40;98.00
40816;DHT22;26535;48.788;9.214;2023-09-30T21:39:14;14.40;98.10
40816;DHT22;26535;48.788;9.214;2023-09-30T21:41:40;14.40;98.40
40816;DHT22;26535;48.788;9.214;2023-09-30T21:44:06;14.20;98.60
40816;DHT22;26535;48.788;9.214;2023-09-30T21:46:31;14.20;99.20
40816;DHT22;26535;48.788;9.214;2023-09-30T21:48:59;14.10;99.50
40816;DHT22;26535;48.788;9.214;2023-09-30T21:51:25;14.00;99.80
40816;DHT22;26535;48.788;9.214;2023-09-30T21:53:50;14.00;99.90
40816;DHT22;26535;48.788;9.214;2023-09-30T21:56:16;14.00;99.70
40816;DHT22;26535;48.788;9.214;2023-09-30T21:58:42;14.00;99.60
40816;DHT22;26535;48.788;9.214;2023-09-30T22:01:11;14.00;99.70
40816;DHT22;26535;48.788;9.214;2023-09-30T22:03:43;14.00;99.60
40816;DHT22;26535;48.788;9.214;2023-09-30T22:06:09;14.00;99.90
40816;DHT22;26535;48.788;9.214;2023-09-30T22:08:35;13.90;99.90
40816;DHT22;26535;48.788;9.214;2023-09-30T22:11:02;13.90;99.90
40816;DHT22;26535;48.788;9.214;2023-09-30T22:13:28;13.80;99.90